Time;durP1;ratioP1;P1;durP2;ratioP2;P2;SDS_P1;SDS_P2;PMS_P1;PMS_P2;Temp;Humidity;BMP_temperature;BMP_pressure;BME280_temperature;BME280_humidity;BME280_pressure;Samples;Min_cycle;Max_cycle;Signal;HPM_P1;HPM_P2
2024/01/19 00:00:52;;;;;;;8.63;5.32;;;;;;;;;;4995577;28;20042;-65
2024/01/19 00:03:17;;;;;;;7.70;4.88;;;;;;;;;;4997226;28;20045;-65
2024/01/19 00:05:43;;;;;;;10.25;5.32;;;;;;;;;;4996257;28;20061;-65
2024/01/19 00:08:10;;;;;;;6.03;4.70;;;;;;;;;;4997061;28;20130;-64
2024/01/19 00:10:36;;;;;;;8.27;5.20;;;;;;;;;;4996641;28;20128;-66
2024/01/19 00:13:01;;;;;;;9.77;4.85;;;;;;;;;;4995279;28;20053;-65
2024/01/19 00:15:26;;;;;;;26.20;3.13;;;;;;;;;;4996733;28;20045;-65
2024/01/19 00:17:52;;;;;;;8.40;4.35;;;;;;;;;;4995183;28;20053;-67
2024/01/19 00:20:17;;;;;;;8.35;5.00;;;;;;;;;;4996380;28;20060;-67
2024/01/19 00:22:43;;;;;;;5.95;3.85;;;;;;;;;;4978643;28;20057;-66
2024/01/19 00:25:09;;;;;;;6.20;4.45;;;;;;;;;;4997165;28;20038;-64
2024/01/19 00:27:34;;;;;;;6.03;5.00;;;;;;;;;;4996868;28;20110;-66
2024/01/19 00:29:59;;;;;;;7.63;5.13;;;;;;;;;;4994130;28;20049;-65
2024/01/19 00:32:25;;;;;;;7.28;4.65;;;;;;;;;;4979710;28;20050;-67
2024/01/19 00:34:50;;;;;;;9.02;4.95;;;;;;;;;;4978977;28;20136;-67
2024/01/19 00:37:16;;;;;;;5.95;4.28;;;;;;;;;;4996192;28;20042;-67
2024/01/19 00:39:41;;;;;;;5.10;3.67;;;;;;;;;;4996495;28;20068;-68
2024/01/19 00:42:06;;;;;;;9.40;5.00;;;;;;;;;;4996097;28;20060;-66
2024/01/19 00:44:32;;;;;;;7.65;5.25;;;;;;;;;;4979750;28;20554;-68
2024/01/19 00:46:58;;;;;;;5.30;3.78;;;;;;;;;;4978596;28;20181;-66
2024/01/19 00:49:23;;;;;;;7.70;5.15;;;;;;;;;;4996913;28;20042;-66
2024/01/19 00:51:49;;;;;;;5.63;4.30;;;;;;;;;;4996408;28;20049;-65
2024/01/19 00:54:14;;;;;;;6.50;4.05;;;;;;;;;;4996565;28;20095;-66
2024/01/19 00:56:39;;;;;;;6.93;4.45;;;;;;;;;;4995730;28;20129;-68
2024/01/19 00:59:05;;;;;;;9.65;5.15;;;;;;;;;;4999811;28;20034;-67
2024/01/19 01:01:31;;;;;;;6.28;4.85;;;;;;;;;;5001004;28;20735;-67
2024/01/19 01:03:58;;;;;;;8.35;4.70;;;;;;;;;;5000169;28;20585;-68
2024/01/19 01:06:23;;;;;;;3.40;3.10;;;;;;;;;;5000037;28;20044;-68
2024/01/19 01:08:49;;;;;;;10.10;4.60;;;;;;;;;;4999208;28;20050;-67
2024/01/19 01:11:14;;;;;;;6.70;4.60;;;;;;;;;;5000051;28;20100;-67
2024/01/19 01:13:40;;;;;;;5.10;3.47;;;;;;;;;;4984332;28;20065;-66
2024/01/19 01:16:06;;;;;;;7.82;4.55;;;;;;;;;;4983598;28;20080;-66
2024/01/19 01:18:31;;;;;;;4.32;3.58;;;;;;;;;;4960990;28;20108;-65
2024/01/19 01:20:57;;;;;;;4.43;3.78;;;;;;;;;;4984276;28;20046;-66
2024/01/19 01:23:24;;;;;;;5.85;4.10;;;;;;;;;;4982888;28;20041;-67
2024/01/19 01:25:49;;;;;;;7.03;4.20;;;;;;;;;;5000147;28;20814;-65
2024/01/19 01:28:15;;;;;;;6.57;3.80;;;;;;;;;;4997948;28;20482;-66
2024/01/19 01:30:41;;;;;;;7.22;4.40;;;;;;;;;;4997807;28;20049;-67
2024/01/19 01:33:06;;;;;;;10.38;4.32;;;;;;;;;;4997859;28;20029;-68
2024/01/19 01:35:32;;;;;;;5.07;3.53;;;;;;;;;;4997699;28;20093;-68
2024/01/19 01:37:58;;;;;;;5.28;3.95;;;;;;;;;;4998009;28;20050;-67
2024/01/19 01:40:23;;;;;;;7.93;4.30;;;;;;;;;;4999799;28;20076;-66
2024/01/19 01:42:49;;;;;;;5.85;3.95;;;;;;;;;;4998685;28;20065;-66
2024/01/19 01:45:14;;;;;;;8.35;3.95;;;;;;;;;;4999770;28;20141;-67
2024/01/19 01:47:39;;;;;;;4.78;4.10;;;;;;;;;;4999743;28;20069;-69
2024/01/19 01:50:06;;;;;;;7.65;3.97;;;;;;;;;;4998533;28;20157;-65
2024/01/19 01:52:32;;;;;;;10.70;4.43;;;;;;;;;;4998612;28;20038;-67
2024/01/19 01:54:57;;;;;;;6.30;4.40;;;;;;;;;;4998605;28;20069;-64
2024/01/19 01:57:24;;;;;;;6.68;4.43;;;;;;;;;;4965651;28;20398;-66
2024/01/19 01:59:51;;;;;;;8.02;4.28;;;;;;;;;;4980745;28;20100;-67
2024/01/19 02:02:17;;;;;;;5.90;4.03;;;;;;;;;;4999082;28;20050;-67
2024/01/19 02:04:43;;;;;;;6.40;4.43;;;;;;;;;;4998964;28;20048;-67
2024/01/19 02:07:08;;;;;;;6.85;4.57;;;;;;;;;;4999073;28;20045;-65
2024/01/19 02:09:34;;;;;;;9.70;4.40;;;;;;;;;;4998019;28;20046;-67
2024/01/19 02:11:59;;;;;;;5.60;3.55;;;;;;;;;;4998038;28;20053;-65
2024/01/19 02:14:25;;;;;;;5.22;4.03;;;;;;;;;;4982315;28;20049;-65
2024/01/19 02:16:50;;;;;;;7.68;4.28;;;;;;;;;;4998054;28;20141;-67
2024/01/19 02:19:16;;;;;;;11.50;4.28;;;;;;;;;;4999076;28;20067;-63
2024/01/19 02:21:41;;;;;;;5.00;4.03;;;;;;;;;;4998526;28;20053;-68
2024/01/19 02:24:18;;;;;;;4.40;3.50;;;;;;;;;;4998684;28;20104;-65
2024/01/19 02:26:43;;;;;;;4.15;3.08;;;;;;;;;;4998462;28;20041;-67
2024/01/19 02:29:09;;;;;;;5.88;4.03;;;;;;;;;;4998264;28;21120;-65
2024/01/19 02:31:34;;;;;;;5.25;4.15;;;;;;;;;;4999101;28;20045;-65
2024/01/19 02:34:00;;;;;;;5.07;3.75;;;;;;;;;;4997940;28;20069;-65
2024/01/19 02:36:25;;;;;;;5.43;3.50;;;;;;;;;;4999018;28;20196;-64
2024/01/19 02:38:51;;;;;;;5.93;3.42;;;;;;;;;;4997770;28;20065;-64
2024/01/19 02:41:16;;;;;;;3.60;2.58;;;;;;;;;;4981313;28;20049;-67
2024/01/19 02:43:42;;;;;;;4.95;3.92;;;;;;;;;;4998161;28;20156;-64
2024/01/19 02:46:08;;;;;;;9.90;4.38;;;;;;;;;;4997853;28;20053;-67
2024/01/19 02:48:34;;;;;;;4.68;3.85;;;;;;;;;;4998115;28;20038;-67
2024/01/19 02:50:59;;;;;;;10.23;3.72;;;;;;;;;;4998094;28;20108;-65
2024/01/19 02:53:24;;;;;;;3.90;3.15;;;;;;;;;;4998775;28;20057;-66
2024/01/19 02:55:50;;;;;;;4.93;3.50;;;;;;;;;;4997979;28;20048;-64
2024/01/19 02:58:15;;;;;;;8.88;3.55;;;;;;;;;;4997220;28;20119;-64
2024/01/19 03:00:41;;;;;;;6.25;3.70;;;;;;;;;;4956240;28;20034;-67
2024/01/19 03:03:06;;;;;;;6.20;3.58;;;;;;;;;;4965992;28;20519;-64
2024/01/19 03:05:32;;;;;;;5.50;3.63;;;;;;;;;;4998228;28;20133;-66
2024/01/19 03:07:57;;;;;;;5.30;4.00;;;;;;;;;;4981729;28;20077;-66
2024/01/19 03:10:23;;;;;;;4.82;3.90;;;;;;;;;;4997876;28;20161;-65
2024/01/19 03:12:48;;;;;;;8.20;3.65;;;;;;;;;;4981228;28;20129;-65
2024/01/19 03:15:14;;;;;;;3.20;2.70;;;;;;;;;;4981478;28;20493;-66
2024/01/19 03:17:39;;;;;;;3.85;3.22;;;;;;;;;;4997783;28;20054;-67
2024/01/19 03:20:05;;;;;;;4.75;3.15;;;;;;;;;;4997176;28;20053;-68
2024/01/19 03:22:31;;;;;;;7.40;3.63;;;;;;;;;;4997366;28;20041;-65
2024/01/19 03:24:56;;;;;;;4.15;2.67;;;;;;;;;;4995177;28;20058;-65
2024/01/19 03:27:22;;;;;;;4.03;3.55;;;;;;;;;;4969190;28;20046;-66
2024/01/19 03:29:47;;;;;;;3.45;3.15;;;;;;;;;;4997119;28;20387;-66
2024/01/19 03:32:13;;;;;;;2.70;2.50;;;;;;;;;;4979431;28;20053;-67
2024/01/19 03:34:39;;;;;;;5.47;3.80;;;;;;;;;;4997814;28;20046;-66
2024/01/19 03:37:05;;;;;;;3.85;2.97;;;;;;;;;;4997169;28;20479;-66
2024/01/19 03:39:32;;;;;;;5.55;2.92;;;;;;;;;;4997396;28;20069;-66
2024/01/19 03:41:58;;;;;;;7.07;2.58;;;;;;;;;;4997277;28;20519;-67
2024/01/19 03:44:26;;;;;;;4.47;3.35;;;;;;;;;;4997884;28;20061;-68
2024/01/19 03:46:52;;;;;;;6.55;3.25;;;;;;;;;;4997140;28;20184;-65
2024/01/19 03:49:17;;;;;;;11.48;3.20;;;;;;;;;;4980410;28;20510;-66
2024/01/19 03:52:12;;;;;;;6.00;3.05;;;;;;;;;;4997944;28;20125;-67
2024/01/19 03:54:39;;;;;;;5.05;3.08;;;;;;;;;;4978985;28;20049;-67
2024/01/19 03:57:06;;;;;;;2.25;2.05;;;;;;;;;;4957435;28;20082;-66
2024/01/19 03:59:32;;;;;;;4.03;3.17;;;;;;;;;;4954344;28;20081;-67
2024/01/19 04:01:58;;;;;;;3.85;2.88;;;;;;;;;;4980124;28;20076;-66
2024/01/19 04:04:24;;;;;;;5.55;2.88;;;;;;;;;;4997690;28;20053;-67
2024/01/19 04:06:50;;;;;;;5.53;2.65;;;;;;;;;;4979392;28;20143;-64
2024/01/19 04:09:18;;;;;;;2.17;1.98;;;;;;;;;;4996808;28;20144;-64
2024/01/19 04:11:44;;;;;;;5.90;2.70;;;;;;;;;;4996694;28;20120;-65
2024/01/19 04:14:10;;;;;;;4.03;2.90;;;;;;;;;;4996907;28;20050;-65
2024/01/19 04:16:36;;;;;;;4.07;2.83;;;;;;;;;;4996720;28;20050;-66
2024/01/19 04:19:03;;;;;;;4.93;3.38;;;;;;;;;;4996769;28;20052;-65
2024/01/19 04:21:29;;;;;;;3.47;2.28;;;;;;;;;;4997972;28;20046;-67
2024/01/19 04:23:55;;;;;;;6.40;2.85;;;;;;;;;;4995791;28;20085;-68
2024/01/19 04:26:21;;;;;;;3.08;2.40;;;;;;;;;;4996111;28;20518;-67
2024/01/19 04:28:46;;;;;;;7.35;4.18;;;;;;;;;;4995976;28;20060;-64
2024/01/19 04:31:13;;;;;;;3.40;2.97;;;;;;;;;;4995393;28;20056;-65
2024/01/19 04:33:38;;;;;;;3.65;3.13;;;;;;;;;;4995872;28;20046;-65
2024/01/19 04:36:04;;;;;;;3.13;2.83;;;;;;;;;;4996442;28;20057;-66
2024/01/19 04:38:29;;;;;;;3.20;2.72;;;;;;;;;;4996133;28;20558;-67
2024/01/19 04:40:55;;;;;;;5.53;2.75;;;;;;;;;;4997067;28;20054;-65
2024/01/19 04:43:20;;;;;;;6.30;2.70;;;;;;;;;;4990947;28;20053;-65
2024/01/19 04:45:46;;;;;;;6.10;3.50;;;;;;;;;;4976450;28;20053;-65
2024/01/19 04:48:11;;;;;;;2.20;2.05;;;;;;;;;;4980149;28;20139;-64
2024/01/19 04:50:38;;;;;;;4.15;3.05;;;;;;;;;;4995978;28;20060;-65
2024/01/19 04:53:04;;;;;;;4.75;3.65;;;;;;;;;;4978204;28;20050;-66
2024/01/19 04:55:29;;;;;;;5.90;3.50;;;;;;;;;;4996183;28;20128;-66
2024/01/19 04:57:54;;;;;;;4.57;3.30;;;;;;;;;;4996420;28;20068;-66
2024/01/19 05:00:22;;;;;;;4.28;3.17;;;;;;;;;;4995720;28;20100;-66
2024/01/19 05:02:47;;;;;;;3.03;2.83;;;;;;;;;;4994977;28;20446;-68
2024/01/19 05:05:13;;;;;;;4.72;2.75;;;;;;;;;;4995677;28;20053;-67
2024/01/19 05:07:39;;;;;;;3.20;2.90;;;;;;;;;;4995873;28;20045;-66
2024/01/19 05:10:05;;;;;;;5.47;3.72;;;;;;;;;;4995155;28;20046;-65
2024/01/19 05:12:31;;;;;;;4.85;3.00;;;;;;;;;;4995327;28;20046;-66
2024/01/19 05:14:57;;;;;;;4.85;3.33;;;;;;;;;;4996268;28;20100;-65
2024/01/19 05:17:22;;;;;;;5.53;2.03;;;;;;;;;;4994178;28;20053;-67
2024/01/19 05:19:48;;;;;;;4.93;3.92;;;;;;;;;;4995880;28;20041;-66
2024/01/19 05:22:13;;;;;;;17.58;4.25;;;;;;;;;;4978101;28;20139;-64
2024/01/19 05:24:42;;;;;;;5.10;3.20;;;;;;;;;;4995143;28;20096;-66
2024/01/19 05:27:08;;;;;;;4.35;3.20;;;;;;;;;;4978135;28;20045;-68
2024/01/19 05:29:34;;;;;;;8.85;2.75;;;;;;;;;;4995097;28;20092;-67
2024/01/19 05:32:00;;;;;;;6.90;4.00;;;;;;;;;;4994112;28;20617;-68
2024/01/19 05:34:26;;;;;;;4.07;3.60;;;;;;;;;;4995409;28;20172;-68
2024/01/19 05:36:52;;;;;;;5.22;3.65;;;;;;;;;;4994697;28;20066;-68
2024/01/19 05:39:17;;;;;;;6.57;4.10;;;;;;;;;;4993981;28;20136;-68
2024/01/19 05:41:43;;;;;;;7.13;3.10;;;;;;;;;;4994573;28;20148;-69
2024/01/19 05:44:09;;;;;;;7.47;3.45;;;;;;;;;;4994645;28;20049;-69
2024/01/19 05:46:34;;;;;;;12.35;4.30;;;;;;;;;;4998605;28;20096;-67
2024/01/19 05:48:59;;;;;;;8.50;4.07;;;;;;;;;;4998816;28;20061;-69
2024/01/19 05:51:25;;;;;;;6.28;4.45;;;;;;;;;;4995736;28;20041;-66
2024/01/19 05:53:50;;;;;;;5.32;2.88;;;;;;;;;;4998856;28;20073;-67
2024/01/19 05:56:15;;;;;;;9.52;4.68;;;;;;;;;;4980304;28;20034;-66
2024/01/19 05:58:41;;;;;;;4.03;3.50;;;;;;;;;;4980015;28;20136;-66
2024/01/19 06:01:06;;;;;;;7.07;3.88;;;;;;;;;;4996962;28;20062;-69
2024/01/19 06:03:35;;;;;;;3.72;3.15;;;;;;;;;;4995590;28;20049;-67
2024/01/19 06:06:02;;;;;;;6.88;4.18;;;;;;;;;;4998171;28;20054;-70
2024/01/19 06:08:28;;;;;;;6.22;4.22;;;;;;;;;;4994077;28;20049;-70
2024/01/19 06:10:54;;;;;;;5.47;3.53;;;;;;;;;;4967063;28;20132;-69
2024/01/19 06:13:20;;;;;;;9.68;3.38;;;;;;;;;;4996696;28;20046;-68
2024/01/19 06:15:45;;;;;;;4.80;3.95;;;;;;;;;;4994900;28;20072;-70
2024/01/19 06:18:10;;;;;;;6.47;3.75;;;;;;;;;;4988793;28;20056;-69
2024/01/19 06:20:41;;;;;;;5.90;3.30;;;;;;;;;;4992265;28;20084;-68
2024/01/19 06:23:07;;;;;;;5.30;4.25;;;;;;;;;;4974891;28;20042;-70
2024/01/19 06:25:32;;;;;;;4.47;3.78;;;;;;;;;;4976779;28;20046;-70
2024/01/19 06:27:58;;;;;;;5.70;4.70;;;;;;;;;;4996758;28;20041;-68
2024/01/19 06:30:24;;;;;;;5.68;4.00;;;;;;;;;;4996878;28;20046;-67
2024/01/19 06:32:49;;;;;;;5.72;4.30;;;;;;;;;;4996687;28;20064;-67
2024/01/19 06:35:15;;;;;;;9.60;4.32;;;;;;;;;;4996835;28;20111;-69
2024/01/19 06:37:40;;;;;;;10.02;4.10;;;;;;;;;;4999642;28;21021;-66
2024/01/19 06:40:07;;;;;;;10.70;4.97;;;;;;;;;;4998405;28;20045;-68
2024/01/19 06:42:32;;;;;;;6.35;4.55;;;;;;;;;;4997979;28;20049;-68
2024/01/19 06:44:58;;;;;;;8.18;5.13;;;;;;;;;;4996605;28;20041;-66
2024/01/19 06:47:23;;;;;;;10.60;3.95;;;;;;;;;;4997326;28;20723;-66
2024/01/19 06:49:49;;;;;;;4.72;4.00;;;;;;;;;;4998400;28;20050;-68
2024/01/19 06:52:15;;;;;;;5.22;3.92;;;;;;;;;;4996738;28;20128;-64
2024/01/19 06:54:40;;;;;;;6.55;5.30;;;;;;;;;;4993959;28;20069;-65
2024/01/19 06:57:06;;;;;;;3.70;2.90;;;;;;;;;;4997088;28;20152;-76
2024/01/19 06:59:32;;;;;;;12.75;5.45;;;;;;;;;;4997791;28;20041;-65
2024/01/19 07:01:57;;;;;;;11.82;5.20;;;;;;;;;;4997629;28;20784;-67
2024/01/19 07:04:24;;;;;;;11.23;4.75;;;;;;;;;;4997057;28;20534;-67
2024/01/19 07:06:49;;;;;;;8.13;4.93;;;;;;;;;;4996762;28;20048;-67
2024/01/19 07:09:17;;;;;;;11.45;5.93;;;;;;;;;;4994641;28;20046;-69
2024/01/19 07:11:42;;;;;;;7.65;4.65;;;;;;;;;;4996821;28;20037;-66
2024/01/19 07:14:08;;;;;;;7.38;4.68;;;;;;;;;;4979041;28;20041;-67
2024/01/19 07:16:38;;;;;;;4.57;3.28;;;;;;;;;;4981556;28;20042;-67
2024/01/19 07:19:03;;;;;;;6.78;4.75;;;;;;;;;;4996302;28;20054;-66
2024/01/19 07:21:29;;;;;;;5.28;4.22;;;;;;;;;;4997669;28;20525;-67
2024/01/19 07:23:54;;;;;;;4.40;3.45;;;;;;;;;;4997507;28;20087;-67
2024/01/19 07:26:20;;;;;;;2.83;2.65;;;;;;;;;;4997455;28;20112;-67
2024/01/19 07:28:45;;;;;;;10.93;6.05;;;;;;;;;;4996819;28;20209;-66
2024/01/19 07:31:11;;;;;;;11.55;4.90;;;;;;;;;;4995944;28;20058;-66
2024/01/19 07:33:36;;;;;;;6.70;3.03;;;;;;;;;;4996707;28;20046;-68
2024/01/19 07:36:02;;;;;;;10.15;6.05;;;;;;;;;;4997591;28;20048;-69
2024/01/19 07:38:27;;;;;;;10.32;5.43;;;;;;;;;;4996825;28;20046;-67
2024/01/19 07:40:53;;;;;;;7.15;4.57;;;;;;;;;;4996409;28;20990;-68
2024/01/19 07:43:18;;;;;;;5.40;3.83;;;;;;;;;;4996679;28;20049;-67
2024/01/19 07:45:44;;;;;;;7.88;5.60;;;;;;;;;;4996954;28;20041;-67
2024/01/19 07:48:09;;;;;;;3.72;2.67;;;;;;;;;;4964311;28;20144;-68
2024/01/19 07:50:35;;;;;;;5.07;3.88;;;;;;;;;;4996636;28;20046;-67
2024/01/19 07:53:00;;;;;;;6.85;4.28;;;;;;;;;;4996642;28;20450;-66
2024/01/19 07:55:26;;;;;;;9.63;5.28;;;;;;;;;;4996506;28;20054;-68
2024/01/19 07:57:51;;;;;;;9.68;5.00;;;;;;;;;;4996536;28;20885;-67
2024/01/19 08:00:17;;;;;;;9.52;4.20;;;;;;;;;;4995575;28;20046;-67
2024/01/19 08:02:44;;;;;;;15.60;6.35;;;;;;;;;;4995893;28;20087;-68
2024/01/19 08:05:10;;;;;;;7.45;4.75;;;;;;;;;;4996436;28;20060;-68
2024/01/19 08:07:37;;;;;;;12.27;6.22;;;;;;;;;;4997235;28;20042;-66
2024/01/19 08:10:03;;;;;;;9.10;5.40;;;;;;;;;;4997267;28;20522;-67
2024/01/19 08:12:28;;;;;;;8.43;5.68;;;;;;;;;;4995773;28;20057;-68
2024/01/19 08:14:56;;;;;;;6.47;4.32;;;;;;;;;;4978675;28;20053;-66
2024/01/19 08:17:22;;;;;;;9.65;5.68;;;;;;;;;;4995117;28;20049;-67
2024/01/19 08:19:47;;;;;;;6.85;5.32;;;;;;;;;;4996569;28;20411;-68
2024/01/19 08:22:13;;;;;;;10.80;5.50;;;;;;;;;;4996724;28;20080;-67
2024/01/19 08:24:38;;;;;;;9.48;4.07;;;;;;;;;;4980077;28;20161;-67
2024/01/19 08:27:04;;;;;;;12.90;5.13;;;;;;;;;;4996961;28;20088;-69
2024/01/19 08:29:32;;;;;;;12.40;5.45;;;;;;;;;;4996522;28;20050;-68
2024/01/19 08:31:58;;;;;;;7.45;5.05;;;;;;;;;;4996934;28;20073;-68
2024/01/19 08:34:23;;;;;;;9.93;4.60;;;;;;;;;;4996366;28;20045;-67
2024/01/19 08:36:49;;;;;;;9.73;4.55;;;;;;;;;;4995601;28;20052;-67
2024/01/19 08:39:14;;;;;;;18.30;5.35;;;;;;;;;;4996075;28;20115;-66
2024/01/19 08:41:43;;;;;;;9.52;4.45;;;;;;;;;;4996285;28;20573;-68
2024/01/19 08:44:09;;;;;;;7.57;4.45;;;;;;;;;;4995880;28;20053;-68
2024/01/19 08:46:41;;;;;;;8.02;5.57;;;;;;;;;;4995096;28;20056;-67
2024/01/19 08:49:07;;;;;;;4.55;3.55;;;;;;;;;;4996491;28;20057;-66
2024/01/19 08:51:32;;;;;;;4.28;3.38;;;;;;;;;;4996127;28;20929;-66
2024/01/19 08:53:57;;;;;;;7.43;3.55;;;;;;;;;;4995680;28;20156;-67
2024/01/19 08:56:23;;;;;;;6.57;4.18;;;;;;;;;;4995822;28;20510;-66
2024/01/19 08:58:49;;;;;;;8.68;4.68;;;;;;;;;;4994792;28;20080;-67
2024/01/19 09:01:20;;;;;;;7.88;3.63;;;;;;;;;;4995921;28;20057;-67
2024/01/19 09:03:46;;;;;;;7.13;4.75;;;;;;;;;;4996468;28;20060;-66
2024/01/19 09:06:11;;;;;;;6.22;4.20;;;;;;;;;;4965016;28;20050;-67
2024/01/19 09:08:41;;;;;;;11.38;5.07;;;;;;;;;;4994369;28;20518;-69
2024/01/19 09:11:06;;;;;;;6.70;4.70;;;;;;;;;;4978418;28;20057;-67
2024/01/19 09:13:31;;;;;;;4.10;2.90;;;;;;;;;;4979808;28;20046;-69
2024/01/19 09:15:57;;;;;;;3.30;3.00;;;;;;;;;;4981163;28;20054;-67
2024/01/19 09:18:22;;;;;;;6.90;4.15;;;;;;;;;;4981603;28;20045;-68
2024/01/19 09:20:47;;;;;;;2.88;2.55;;;;;;;;;;4998833;28;20046;-67
2024/01/19 09:23:13;;;;;;;6.68;4.22;;;;;;;;;;4983666;28;20046;-69
2024/01/19 09:25:39;;;;;;;2.90;2.35;;;;;;;;;;4999612;28;20491;-66
2024/01/19 09:28:04;;;;;;;8.85;3.53;;;;;;;;;;5000017;28;20053;-66
2024/01/19 09:30:30;;;;;;;5.65;3.30;;;;;;;;;;4997618;28;20046;-66
2024/01/19 09:32:55;;;;;;;2.40;2.20;;;;;;;;;;4982487;28;20054;-67
2024/01/19 09:35:20;;;;;;;8.18;4.50;;;;;;;;;;4999381;28;20049;-66
2024/01/19 09:37:46;;;;;;;4.55;3.42;;;;;;;;;;4999139;28;20436;-67
2024/01/19 09:40:12;;;;;;;6.65;4.88;;;;;;;;;;4999398;28;20052;-67
2024/01/19 09:42:39;;;;;;;5.57;4.00;;;;;;;;;;4997108;28;20479;-65
2024/01/19 09:45:07;;;;;;;5.38;3.20;;;;;;;;;;4999924;28;20054;-66
2024/01/19 09:48:10;;;;;;;5.88;3.70;;;;;;;;;;4999324;28;20053;-68
2024/01/19 09:50:36;;;;;;;7.28;3.78;;;;;;;;;;4998403;28;20165;-68
2024/01/19 09:53:14;;;;;;;3.75;2.97;;;;;;;;;;4998850;28;20041;-66
2024/01/19 09:55:39;;;;;;;4.93;3.83;;;;;;;;;;4998835;28;20073;-66
2024/01/19 09:58:05;;;;;;;8.32;3.28;;;;;;;;;;4999075;28;20129;-67
2024/01/19 10:00:30;;;;;;;7.35;4.43;;;;;;;;;;4998622;28;20141;-66
2024/01/19 10:02:55;;;;;;;5.28;3.15;;;;;;;;;;4997822;28;20053;-66
2024/01/19 10:05:21;;;;;;;7.63;4.07;;;;;;;;;;4998408;28;20059;-66
2024/01/19 10:07:49;;;;;;;6.63;4.32;;;;;;;;;;4999369;28;20060;-67
2024/01/19 10:10:15;;;;;;;8.75;4.85;;;;;;;;;;4999187;28;20042;-67
2024/01/19 10:12:42;;;;;;;6.90;5.03;;;;;;;;;;4997729;28;20045;-69
2024/01/19 10:15:14;;;;;;;3.25;2.20;;;;;;;;;;4998081;28;20160;-67
2024/01/19 10:17:40;;;;;;;5.55;4.35;;;;;;;;;;4998050;28;20041;-67
2024/01/19 10:20:10;;;;;;;5.22;4.18;;;;;;;;;;4998688;28;20050;-66
2024/01/19 10:22:35;;;;;;;2.40;2.20;;;;;;;;;;4997571;28;20046;-68
2024/01/19 10:25:08;;;;;;;5.50;4.28;;;;;;;;;;4999319;28;20061;-66
2024/01/19 10:27:39;;;;;;;6.70;4.15;;;;;;;;;;4998418;28;20145;-69
2024/01/19 10:30:14;;;;;;;7.47;5.10;;;;;;;;;;4997509;28;20049;-67
2024/01/19 10:32:41;;;;;;;6.43;4.63;;;;;;;;;;4997310;28;20053;-67
2024/01/19 10:35:10;;;;;;;5.50;3.67;;;;;;;;;;4998564;28;20554;-67
2024/01/19 10:37:36;;;;;;;7.18;4.53;;;;;;;;;;4997512;28;20053;-67
2024/01/19 10:40:21;;;;;;;6.28;4.70;;;;;;;;;;4998660;28;20073;-67
2024/01/19 10:42:53;;;;;;;6.63;4.20;;;;;;;;;;4998095;28;20088;-67
2024/01/19 10:45:23;;;;;;;8.10;4.55;;;;;;;;;;4997663;28;20084;-66
2024/01/19 10:47:55;;;;;;;8.77;5.32;;;;;;;;;;4997311;28;20038;-68
2024/01/19 10:50:24;;;;;;;3.88;3.42;;;;;;;;;;4997086;28;20084;-69
2024/01/19 10:52:53;;;;;;;6.22;4.53;;;;;;;;;;4997590;28;20073;-68
2024/01/19 10:55:27;;;;;;;4.90;3.15;;;;;;;;;;4998481;28;20724;-67
2024/01/19 10:57:55;;;;;;;5.18;4.68;;;;;;;;;;4980924;28;20053;-68
2024/01/19 11:00:25;;;;;;;6.60;3.75;;;;;;;;;;4996824;28;20068;-68
2024/01/19 11:03:03;;;;;;;5.45;2.67;;;;;;;;;;4997442;28;20081;-67
2024/01/19 11:05:29;;;;;;;5.25;3.50;;;;;;;;;;4980408;28;20473;-68
2024/01/19 11:07:59;;;;;;;8.50;4.25;;;;;;;;;;4997753;28;20514;-67
2024/01/19 11:10:27;;;;;;;8.35;4.10;;;;;;;;;;4995773;28;20411;-68
2024/01/19 11:12:57;;;;;;;5.85;3.45;;;;;;;;;;4997122;28;20081;-69
2024/01/19 11:15:35;;;;;;;5.53;3.83;;;;;;;;;;4997174;28;20050;-68
2024/01/19 11:18:03;;;;;;;6.03;3.03;;;;;;;;;;4997704;28;20662;-67
2024/01/19 11:20:30;;;;;;;7.18;5.18;;;;;;;;;;4996635;28;20052;-66
2024/01/19 11:22:55;;;;;;;6.93;3.17;;;;;;;;;;4997201;28;20453;-67
2024/01/19 11:25:59;;;;;;;7.20;3.70;;;;;;;;;;4998169;28;20739;-67
2024/01/19 11:28:41;;;;;;;3.42;3.13;;;;;;;;;;4996740;28;20050;-67
2024/01/19 11:31:30;;;;;;;6.10;3.83;;;;;;;;;;4996202;28;20081;-67
2024/01/19 11:33:57;;;;;;;8.32;4.43;;;;;;;;;;4997558;28;20093;-66
2024/01/19 11:36:36;;;;;;;4.30;2.67;;;;;;;;;;4997435;28;20045;-67
2024/01/19 11:39:05;;;;;;;5.18;3.78;;;;;;;;;;4981091;28;20060;-66
2024/01/19 11:41:33;;;;;;;2.85;2.28;;;;;;;;;;4978345;28;20053;-67
2024/01/19 11:44:00;;;;;;;5.70;3.65;;;;;;;;;;4996800;28;20129;-67
2024/01/19 11:46:44;;;;;;;3.20;2.05;;;;;;;;;;4978362;28;20042;-67
2024/01/19 11:49:34;;;;;;;6.28;4.15;;;;;;;;;;4980435;28;20123;-67
2024/01/19 11:52:02;;;;;;;4.53;3.83;;;;;;;;;;4996959;28;20426;-70
2024/01/19 11:54:29;;;;;;;8.32;4.53;;;;;;;;;;4994768;28;20060;-67
2024/01/19 11:57:27;;;;;;;2.20;2.00;;;;;;;;;;4995808;28;20101;-67
2024/01/19 11:59:56;;;;;;;3.05;2.20;;;;;;;;;;4976783;28;20451;-67
2024/01/19 12:02:31;;;;;;;7.38;3.78;;;;;;;;;;4995445;28;20049;-66
2024/01/19 12:05:04;;;;;;;2.70;1.80;;;;;;;;;;4994474;28;20057;-68
2024/01/19 12:07:29;;;;;;;4.43;3.08;;;;;;;;;;4979313;28;20053;-66
2024/01/19 12:10:08;;;;;;;5.22;3.58;;;;;;;;;;4996617;28;20049;-68
2024/01/19 12:12:34;;;;;;;5.00;3.67;;;;;;;;;;4995724;28;20081;-71
2024/01/19 12:15:03;;;;;;;6.15;4.15;;;;;;;;;;4996322;28;20069;-70
2024/01/19 12:17:29;;;;;;;5.57;4.10;;;;;;;;;;4995465;28;20422;-68
2024/01/19 12:19:55;;;;;;;7.53;5.18;;;;;;;;;;4996100;28;20046;-69
2024/01/19 12:22:20;;;;;;;4.00;2.80;;;;;;;;;;4995486;28;21081;-67
2024/01/19 12:24:46;;;;;;;8.52;5.90;;;;;;;;;;4995813;28;20049;-68
2024/01/19 12:27:20;;;;;;;16.23;5.28;;;;;;;;;;4996312;28;20052;-67
2024/01/19 12:29:46;;;;;;;7.50;5.00;;;;;;;;;;4995733;28;20042;-68
2024/01/19 12:32:13;;;;;;;10.18;5.50;;;;;;;;;;4979603;28;20041;-67
2024/01/19 12:34:39;;;;;;;12.20;6.10;;;;;;;;;;4990887;28;20042;-67
2024/01/19 12:37:05;;;;;;;9.05;6.05;;;;;;;;;;4987715;28;20077;-68
2024/01/19 12:39:30;;;;;;;9.50;4.57;;;;;;;;;;4988064;28;20160;-68
2024/01/19 12:42:05;;;;;;;6.57;4.20;;;;;;;;;;4992020;28;20042;-67
2024/01/19 12:44:31;;;;;;;5.53;3.78;;;;;;;;;;4987811;28;20068;-68
2024/01/19 12:47:00;;;;;;;7.50;5.25;;;;;;;;;;4989776;28;20037;-68
2024/01/19 12:49:25;;;;;;;7.18;4.68;;;;;;;;;;4995324;28;20407;-68
2024/01/19 12:51:51;;;;;;;10.05;6.53;;;;;;;;;;4995309;28;20044;-67
2024/01/19 12:54:18;;;;;;;9.88;6.60;;;;;;;;;;4995536;28;20042;-68
2024/01/19 12:56:44;;;;;;;10.40;5.65;;;;;;;;;;4993485;28;20066;-67
2024/01/19 12:59:16;;;;;;;14.88;6.45;;;;;;;;;;4995055;28;20085;-67
2024/01/19 13:01:43;;;;;;;11.73;7.05;;;;;;;;;;4994097;28;20125;-66
2024/01/19 13:04:10;;;;;;;13.43;7.03;;;;;;;;;;4976946;28;20042;-67
2024/01/19 13:06:43;;;;;;;10.13;6.38;;;;;;;;;;4993033;28;20050;-68
2024/01/19 13:09:09;;;;;;;11.95;7.07;;;;;;;;;;4993191;28;20081;-68
2024/01/19 13:11:35;;;;;;;8.63;6.28;;;;;;;;;;4994390;28;20053;-67
2024/01/19 13:14:03;;;;;;;13.52;7.65;;;;;;;;;;4994502;28;20054;-68
2024/01/19 13:16:33;;;;;;;7.43;5.60;;;;;;;;;;4995011;28;20498;-69
2024/01/19 13:19:03;;;;;;;15.48;7.70;;;;;;;;;;4993900;28;20046;-68
2024/01/19 13:21:30;;;;;;;11.85;7.85;;;;;;;;;;4976572;28;20038;-70
2024/01/19 13:23:56;;;;;;;13.90;7.00;;;;;;;;;;4988051;28;20402;-68
2024/01/19 13:26:22;;;;;;;11.73;7.07;;;;;;;;;;4992519;28;20057;-68
2024/01/19 13:28:47;;;;;;;5.82;4.45;;;;;;;;;;4990139;28;20046;-67
2024/01/19 13:31:17;;;;;;;9.73;5.65;;;;;;;;;;4989274;28;20249;-68
2024/01/19 13:33:46;;;;;;;12.07;7.15;;;;;;;;;;4971107;28;20057;-68
2024/01/19 13:36:13;;;;;;;9.77;6.07;;;;;;;;;;4989728;28;20050;-68
2024/01/19 13:38:40;;;;;;;9.00;6.13;;;;;;;;;;4990090;28;20056;-67
2024/01/19 13:41:07;;;;;;;8.30;5.05;;;;;;;;;;4994027;28;20042;-69
2024/01/19 13:43:33;;;;;;;5.22;3.92;;;;;;;;;;4991769;28;20045;-68
2024/01/19 13:45:59;;;;;;;9.98;7.05;;;;;;;;;;4993942;28;20040;-67
2024/01/19 13:48:26;;;;;;;8.07;5.15;;;;;;;;;;4993409;28;20815;-68
2024/01/19 13:50:51;;;;;;;9.50;5.95;;;;;;;;;;4992231;28;20144;-68
2024/01/19 13:53:17;;;;;;;10.32;6.30;;;;;;;;;;4993051;28;20065;-66
2024/01/19 13:55:43;;;;;;;10.60;7.05;;;;;;;;;;4993531;28;20071;-67
2024/01/19 13:58:08;;;;;;;15.85;7.57;;;;;;;;;;4994203;28;20069;-68
2024/01/19 14:00:35;;;;;;;12.65;5.80;;;;;;;;;;4976936;28;20427;-68
2024/01/19 14:03:02;;;;;;;13.00;6.90;;;;;;;;;;4994438;28;20103;-67
2024/01/19 14:05:27;;;;;;;9.65;6.43;;;;;;;;;;4978179;28;20041;-67
2024/01/19 14:07:53;;;;;;;9.70;5.60;;;;;;;;;;4996924;28;20587;-67
2024/01/19 14:10:19;;;;;;;7.78;5.65;;;;;;;;;;4998741;28;20045;-68
2024/01/19 14:12:45;;;;;;;10.43;5.85;;;;;;;;;;4997528;28;20054;-68
2024/01/19 14:15:11;;;;;;;10.15;6.65;;;;;;;;;;4997359;28;20495;-67
2024/01/19 14:17:37;;;;;;;9.32;5.45;;;;;;;;;;4997813;28;20050;-69
2024/01/19 14:20:04;;;;;;;12.45;7.38;;;;;;;;;;4998275;28;20042;-68
2024/01/19 14:22:30;;;;;;;7.38;5.18;;;;;;;;;;4976436;28;20136;-68
2024/01/19 14:24:55;;;;;;;11.15;6.97;;;;;;;;;;4997405;28;20060;-68
2024/01/19 14:27:22;;;;;;;12.15;6.60;;;;;;;;;;4994475;28;20041;-68
2024/01/19 14:29:48;;;;;;;10.70;5.10;;;;;;;;;;4992766;28;20073;-68
2024/01/19 14:32:15;;;;;;;8.93;5.95;;;;;;;;;;4979531;28;20498;-67
2024/01/19 14:34:42;;;;;;;12.38;6.07;;;;;;;;;;4995268;28;20104;-69
2024/01/19 14:37:10;;;;;;;7.18;4.78;;;;;;;;;;4996684;28;20494;-68
2024/01/19 14:39:36;;;;;;;6.47;4.85;;;;;;;;;;4994405;28;20053;-68